sensor_id;sensor_type;location;lat;lon;timestamp;temperature;humidity
25582;DHT22;13462;50.764;4.332;2023-12-07T00:01:18;3.70;99.90
25582;DHT22;13462;50.764;4.332;2023-12-07T00:03:44;3.70;99.90
25582;DHT22;13462;50.764;4.332;2023-12-07T00:06:10;3.80;99.90
25582;DHT22;13462;50.764;4.332;2023-12-07T00:08:35;3.80;99.90
25582;DHT22;13462;50.764;4.332;2023-12-07T00:11:01;3.70;99.90
25582;DHT22;13462;50.764;4.332;2023-12-07T00:13:27;3.70;99.90
25582;DHT22;13462;50.764;4.332;2023-12-07T00:15:53;3.70;99.90
25582;DHT22;13462;50.764;4.332;2023-12-07T00:18:18;3.80;99.90
25582;DHT22;13462;50.764;4.332;2023-12-07T00:20:44;3.90;99.90
25582;DHT22;13462;50.764;4.332;2023-12-07T00:23:10;4.10;99.90
25582;DHT22;13462;50.764;4.332;2023-12-07T00:25:36;4.00;99.90
25582;DHT22;13462;50.764;4.332;2023-12-07T00:28:02;4.00;99.90
25582;DHT22;13462;50.764;4.332;2023-12-07T00:30:28;4.00;99.90
25582;DHT22;13462;50.764;4.332;2023-12-07T00:32:54;4.00;99.90
25582;DHT22;13462;50.764;4.332;2023-12-07T00:35:19;3.90;99.90
25582;DHT22;13462;50.764;4.332;2023-12-07T00:37:47;3.90;99.90
25582;DHT22;13462;50.764;4.332;2023-12-07T00:40:13;3.80;99.90
25582;DHT22;13462;50.764;4.332;2023-12-07T00:42:39;3.90;99.90
25582;DHT22;13462;50.764;4.332;2023-12-07T00:45:05;3.90;99.90
25582;DHT22;13462;50.764;4.332;2023-12-07T00:47:31;3.80;99.90
25582;DHT22;13462;50.764;4.332;2023-12-07T00:49:56;3.70;99.90
25582;DHT22;13462;50.764;4.332;2023-12-07T00:52:22;3.70;99.90
25582;DHT22;13462;50.764;4.332;2023-12-07T00:54:47;3.70;99.90
25582;DHT22;13462;50.764;4.332;2023-12-07T00:57:13;3.70;99.90
25582;DHT22;13462;50.764;4.332;2023-12-07T00:59:39;3.70;99.90
25582;DHT22;13462;50.764;4.332;2023-12-07T01:02:05;3.70;99.90
25582;DHT22;13462;50.764;4.332;2023-12-07T01:04:32;3.70;99.90
25582;DHT22;13462;50.764;4.332;2023-12-07T01:06:58;3.80;99.90
25582;DHT22;13462;50.764;4.332;2023-12-07T01:09:24;3.80;99.90
25582;DHT22;13462;50.764;4.332;2023-12-07T01:11:50;3.60;99.90
25582;DHT22;13462;50.764;4.332;2023-12-07T01:14:16;3.60;99.90
25582;DHT22;13462;50.764;4.332;2023-12-07T01:16:43;3.30;99.90
25582;DHT22;13462;50.764;4.332;2023-12-07T01:19:09;3.40;99.90
25582;DHT22;13462;50.764;4.332;2023-12-07T01:21:34;3.40;99.90
25582;DHT22;13462;50.764;4.332;2023-12-07T01:24:00;3.40;99.90
25582;DHT22;13462;50.764;4.332;2023-12-07T01:26:25;3.40;99.90
25582;DHT22;13462;50.764;4.332;2023-12-07T01:28:51;3.40;99.90
25582;DHT22;13462;50.764;4.332;2023-12-07T01:31:17;3.40;99.90
25582;DHT22;13462;50.764;4.332;2023-12-07T01:33:43;3.50;99.90
25582;DHT22;13462;50.764;4.332;2023-12-07T01:36:10;3.50;99.90
25582;DHT22;13462;50.764;4.332;2023-12-07T01:38:35;3.60;99.90
25582;DHT22;13462;50.764;4.332;2023-12-07T01:41:01;3.50;99.90
25582;DHT22;13462;50.764;4.332;2023-12-07T01:43:26;3.50;99.90
25582;DHT22;13462;50.764;4.332;2023-12-07T01:45:54;3.60;99.90
25582;DHT22;13462;50.764;4.332;2023-12-07T01:48:22;3.50;99.90
25582;DHT22;13462;50.764;4.332;2023-12-07T01:50:48;3.50;99.90
25582;DHT22;13462;50.764;4.332;2023-12-07T01:53:15;3.50;99.90
25582;DHT22;13462;50.764;4.332;2023-12-07T01:55:41;3.50;99.90
25582;DHT22;13462;50.764;4.332;2023-12-07T01:58:07;3.50;99.90
25582;DHT22;13462;50.764;4.332;2023-12-07T02:00:34;3.50;99.90
25582;DHT22;13462;50.764;4.332;2023-12-07T02:03:02;3.60;99.90
25582;DHT22;13462;50.764;4.332;2023-12-07T02:05:29;3.60;99.90
25582;DHT22;13462;50.764;4.332;2023-12-07T02:07:54;3.60;99.90
25582;DHT22;13462;50.764;4.332;2023-12-07T02:10:20;3.70;99.90
25582;DHT22;13462;50.764;4.332;2023-12-07T02:12:47;3.60;99.90
25582;DHT22;13462;50.764;4.332;2023-12-07T02:15:13;3.60;99.90
25582;DHT22;13462;50.764;4.332;2023-12-07T02:20:20;3.60;99.90
25582;DHT22;13462;50.764;4.332;2023-12-07T02:22:55;3.60;99.90
25582;DHT22;13462;50.764;4.332;2023-12-07T02:25:26;3.60;99.90
25582;DHT22;13462;50.764;4.332;2023-12-07T02:27:54;3.70;99.90
25582;DHT22;13462;50.764;4.332;2023-12-07T02:30:20;3.70;99.90
25582;DHT22;13462;50.764;4.332;2023-12-07T02:32:46;3.70;99.90
25582;DHT22;13462;50.764;4.332;2023-12-07T02:35:12;3.60;99.90
25582;DHT22;13462;50.764;4.332;2023-12-07T02:38:05;3.70;99.90
25582;DHT22;13462;50.764;4.332;2023-12-07T02:40:31;3.70;99.90
25582;DHT22;13462;50.764;4.332;2023-12-07T02:42:58;3.70;99.90
25582;DHT22;13462;50.764;4.332;2023-12-07T02:45:24;3.70;99.90
25582;DHT22;13462;50.764;4.332;2023-12-07T02:47:51;3.70;99.90
25582;DHT22;13462;50.764;4.332;2023-12-07T02:50:16;3.80;99.90
25582;DHT22;13462;50.764;4.332;2023-12-07T02:52:42;3.90;99.90
25582;DHT22;13462;50.764;4.332;2023-12-07T02:55:08;3.80;99.90
25582;DHT22;13462;50.764;4.332;2023-12-07T02:57:35;3.80;99.90
25582;DHT22;13462;50.764;4.332;2023-12-07T03:00:01;3.70;99.90
25582;DHT22;13462;50.764;4.332;2023-12-07T03:02:35;3.80;99.90
25582;DHT22;13462;50.764;4.332;2023-12-07T03:05:01;3.80;99.90
25582;DHT22;13462;50.764;4.332;2023-12-07T03:07:26;3.80;99.90
25582;DHT22;13462;50.764;4.332;2023-12-07T03:09:52;3.80;99.90
25582;DHT22;13462;50.764;4.332;2023-12-07T03:12:18;3.80;99.90
25582;DHT22;13462;50.764;4.332;2023-12-07T03:14:43;3.80;99.90
25582;DHT22;13462;50.764;4.332;2023-12-07T03:17:09;3.90;99.90
25582;DHT22;13462;50.764;4.332;2023-12-07T03:19:38;3.90;99.90
25582;DHT22;13462;50.764;4.332;2023-12-07T03:22:04;3.70;99.90
25582;DHT22;13462;50.764;4.332;2023-12-07T03:24:32;3.60;99.90
25582;DHT22;13462;50.764;4.332;2023-12-07T03:26:58;3.70;99.90
25582;DHT22;13462;50.764;4.332;2023-12-07T03:29:23;3.60;99.90
25582;DHT22;13462;50.764;4.332;2023-12-07T03:31:49;3.50;99.90
25582;DHT22;13462;50.764;4.332;2023-12-07T03:34:14;3.60;99.90
25582;DHT22;13462;50.764;4.332;2023-12-07T03:36:50;3.60;99.90
25582;DHT22;13462;50.764;4.332;2023-12-07T03:39:17;3.60;99.90
25582;DHT22;13462;50.764;4.332;2023-12-07T03:41:48;3.70;99.90
25582;DHT22;13462;50.764;4.332;2023-12-07T03:44:14;3.70;99.90
25582;DHT22;13462;50.764;4.332;2023-12-07T03:46:40;3.70;99.90
25582;DHT22;13462;50.764;4.332;2023-12-07T03:49:05;3.70;99.90
25582;DHT22;13462;50.764;4.332;2023-12-07T03:51:31;3.70;99.90
25582;DHT22;13462;50.764;4.332;2023-12-07T03:53:56;3.70;99.90
25582;DHT22;13462;50.764;4.332;2023-12-07T03:56:29;3.70;99.90
25582;DHT22;13462;50.764;4.332;2023-12-07T03:58:55;3.70;99.90
25582;DHT22;13462;50.764;4.332;2023-12-07T04:01:23;3.60;99.90
25582;DHT22;13462;50.764;4.332;2023-12-07T04:03:49;3.60;99.90
25582;DHT22;13462;50.764;4.332;2023-12-07T04:06:15;3.50;99.90
25582;DHT22;13462;50.764;4.332;2023-12-07T04:08:42;3.60;99.90
25582;DHT22;13462;50.764;4.332;2023-12-07T04:11:07;3.50;99.90
25582;DHT22;13462;50.764;4.332;2023-12-07T04:13:33;3.50;99.90
25582;DHT22;13462;50.764;4.332;2023-12-07T04:15:58;3.50;99.90
25582;DHT22;13462;50.764;4.332;2023-12-07T04:18:24;3.40;99.90
25582;DHT22;13462;50.764;4.332;2023-12-07T04:20:50;3.40;99.90
25582;DHT22;13462;50.764;4.332;2023-12-07T04:23:15;3.40;99.90
25582;DHT22;13462;50.764;4.332;2023-12-07T04:25:41;3.40;99.90
25582;DHT22;13462;50.764;4.332;2023-12-07T04:28:07;3.20;99.90
25582;DHT22;13462;50.764;4.332;2023-12-07T04:30:32;3.20;99.90
25582;DHT22;13462;50.764;4.332;2023-12-07T04:32:58;3.20;99.90
25582;DHT22;13462;50.764;4.332;2023-12-07T04:35:24;3.10;99.90
25582;DHT22;13462;50.764;4.332;2023-12-07T04:37:49;3.10;99.90
25582;DHT22;13462;50.764;4.332;2023-12-07T04:40:15;3.00;99.90
25582;DHT22;13462;50.764;4.332;2023-12-07T04:42:41;3.00;99.90
25582;DHT22;13462;50.764;4.332;2023-12-07T04:45:07;3.00;99.90
25582;DHT22;13462;50.764;4.332;2023-12-07T04:47:32;2.90;99.90
25582;DHT22;13462;50.764;4.332;2023-12-07T04:49:58;2.90;99.90
25582;DHT22;13462;50.764;4.332;2023-12-07T04:52:24;2.90;99.90
25582;DHT22;13462;50.764;4.332;2023-12-07T04:54:50;3.00;99.90
25582;DHT22;13462;50.764;4.332;2023-12-07T04:57:15;3.00;99.90
25582;DHT22;13462;50.764;4.332;2023-12-07T04:59:41;3.00;99.90
25582;DHT22;13462;50.764;4.332;2023-12-07T05:02:15;3.00;99.90
25582;DHT22;13462;50.764;4.332;2023-12-07T05:04:41;3.10;99.90
25582;DHT22;13462;50.764;4.332;2023-12-07T05:07:06;3.10;99.90
25582;DHT22;13462;50.764;4.332;2023-12-07T05:09:32;3.10;99.90
25582;DHT22;13462;50.764;4.332;2023-12-07T05:11:57;3.00;99.90
25582;DHT22;13462;50.764;4.332;2023-12-07T05:14:23;3.10;99.90
25582;DHT22;13462;50.764;4.332;2023-12-07T05:16:49;3.10;99.90
25582;DHT22;13462;50.764;4.332;2023-12-07T05:19:19;3.20;99.90
25582;DHT22;13462;50.764;4.332;2023-12-07T05:21:46;3.20;99.90
25582;DHT22;13462;50.764;4.332;2023-12-07T05:24:12;3.10;99.90
25582;DHT22;13462;50.764;4.332;2023-12-07T05:26:40;3.20;99.90
25582;DHT22;13462;50.764;4.332;2023-12-07T05:29:06;3.20;99.90
25582;DHT22;13462;50.764;4.332;2023-12-07T05:31:31;3.30;99.90
25582;DHT22;13462;50.764;4.332;2023-12-07T05:33:57;3.30;99.90
25582;DHT22;13462;50.764;4.332;2023-12-07T05:36:23;3.40;99.90
25582;DHT22;13462;50.764;4.332;2023-12-07T05:38:48;3.40;99.90
25582;DHT22;13462;50.764;4.332;2023-12-07T05:41:14;3.40;99.90
25582;DHT22;13462;50.764;4.332;2023-12-07T05:43:42;3.40;99.90
25582;DHT22;13462;50.764;4.332;2023-12-07T05:46:08;3.40;99.90
25582;DHT22;13462;50.764;4.332;2023-12-07T05:48:33;3.50;99.90
25582;DHT22;13462;50.764;4.332;2023-12-07T05:51:01;3.40;99.90
25582;DHT22;13462;50.764;4.332;2023-12-07T05:53:27;3.30;99.90
25582;DHT22;13462;50.764;4.332;2023-12-07T05:55:53;3.30;99.90
25582;DHT22;13462;50.764;4.332;2023-12-07T05:58:19;3.30;99.90
25582;DHT22;13462;50.764;4.332;2023-12-07T06:00:45;3.20;99.90
25582;DHT22;13462;50.764;4.332;2023-12-07T06:03:13;3.20;99.90
25582;DHT22;13462;50.764;4.332;2023-12-07T06:05:38;3.20;99.90
25582;DHT22;13462;50.764;4.332;2023-12-07T06:08:04;3.20;99.90
25582;DHT22;13462;50.764;4.332;2023-12-07T06:10:30;3.20;99.90
25582;DHT22;13462;50.764;4.332;2023-12-07T06:12:56;3.10;99.90
25582;DHT22;13462;50.764;4.332;2023-12-07T06:15:24;3.10;99.90
25582;DHT22;13462;50.764;4.332;2023-12-07T06:17:49;3.20;99.90
25582;DHT22;13462;50.764;4.332;2023-12-07T06:20:15;3.10;99.90
25582;DHT22;13462;50.764;4.332;2023-12-07T06:22:41;3.10;99.90
25582;DHT22;13462;50.764;4.332;2023-12-07T06:25:07;3.20;99.90
25582;DHT22;13462;50.764;4.332;2023-12-07T06:27:37;3.20;99.90
25582;DHT22;13462;50.764;4.332;2023-12-07T06:30:04;3.20;99.90
25582;DHT22;13462;50.764;4.332;2023-12-07T06:32:32;3.20;99.90
25582;DHT22;13462;50.764;4.332;2023-12-07T06:34:58;3.20;99.90
25582;DHT22;13462;50.764;4.332;2023-12-07T06:37:24;3.20;99.90
25582;DHT22;13462;50.764;4.332;2023-12-07T06:39:49;3.20;99.90
25582;DHT22;13462;50.764;4.332;2023-12-07T06:42:15;3.20;99.90
25582;DHT22;13462;50.764;4.332;2023-12-07T06:44:43;3.30;99.90
25582;DHT22;13462;50.764;4.332;2023-12-07T06:47:11;3.20;99.90
25582;DHT22;13462;50.764;4.332;2023-12-07T06:49:37;3.20;99.90
25582;DHT22;13462;50.764;4.332;2023-12-07T06:52:02;3.20;99.90
25582;DHT22;13462;50.764;4.332;2023-12-07T06:54:28;3.20;99.90
25582;DHT22;13462;50.764;4.332;2023-12-07T06:56:54;3.20;99.90
25582;DHT22;13462;50.764;4.332;2023-12-07T06:59:19;3.20;99.90
25582;DHT22;13462;50.764;4.332;2023-12-07T07:01:45;3.20;99.90
25582;DHT22;13462;50.764;4.332;2023-12-07T07:04:11;3.10;99.90
25582;DHT22;13462;50.764;4.332;2023-12-07T07:06:38;3.10;99.90
25582;DHT22;13462;50.764;4.332;2023-12-07T07:09:03;3.10;99.90
25582;DHT22;13462;50.764;4.332;2023-12-07T07:11:30;3.10;99.90
25582;DHT22;13462;50.764;4.332;2023-12-07T07:13:56;3.10;99.90
25582;DHT22;13462;50.764;4.332;2023-12-07T07:16:21;3.10;99.90
25582;DHT22;13462;50.764;4.332;2023-12-07T07:18:47;3.00;99.90
25582;DHT22;13462;50.764;4.332;2023-12-07T07:21:12;3.10;99.90
25582;DHT22;13462;50.764;4.332;2023-12-07T07:23:38;3.00;99.90
25582;DHT22;13462;50.764;4.332;2023-12-07T07:26:04;3.10;99.90
25582;DHT22;13462;50.764;4.332;2023-12-07T07:28:29;3.10;99.90
25582;DHT22;13462;50.764;4.332;2023-12-07T07:30:55;3.00;99.90
25582;DHT22;13462;50.764;4.332;2023-12-07T07:33:21;3.00;99.90
25582;DHT22;13462;50.764;4.332;2023-12-07T07:35:46;3.00;99.90
25582;DHT22;13462;50.764;4.332;2023-12-07T07:38:12;3.10;99.90
25582;DHT22;13462;50.764;4.332;2023-12-07T07:40:38;3.00;99.90
25582;DHT22;13462;50.764;4.332;2023-12-07T07:43:03;3.00;99.90
25582;DHT22;13462;50.764;4.332;2023-12-07T07:45:29;3.00;99.90
25582;DHT22;13462;50.764;4.332;2023-12-07T07:47:55;3.00;99.90
25582;DHT22;13462;50.764;4.332;2023-12-07T07:50:20;3.10;99.90
25582;DHT22;13462;50.764;4.332;2023-12-07T07:52:46;3.10;99.90
25582;DHT22;13462;50.764;4.332;2023-12-07T07:55:12;3.10;99.90
25582;DHT22;13462;50.764;4.332;2023-12-07T07:57:37;3.00;99.90
25582;DHT22;13462;50.764;4.332;2023-12-07T08:00:03;3.10;99.90
25582;DHT22;13462;50.764;4.332;2023-12-07T08:02:34;3.20;99.90
25582;DHT22;13462;50.764;4.332;2023-12-07T08:05:00;3.20;99.90
25582;DHT22;13462;50.764;4.332;2023-12-07T08:07:26;3.20;99.90
25582;DHT22;13462;50.764;4.332;2023-12-07T08:09:51;3.30;99.90
25582;DHT22;13462;50.764;4.332;2023-12-07T08:12:18;3.20;99.90
25582;DHT22;13462;50.764;4.332;2023-12-07T08:14:43;3.30;99.90
25582;DHT22;13462;50.764;4.332;2023-12-07T08:17:11;3.30;99.90
25582;DHT22;13462;50.764;4.332;2023-12-07T08:19:37;3.40;99.90
25582;DHT22;13462;50.764;4.332;2023-12-07T08:22:03;3.50;99.90
25582;DHT22;13462;50.764;4.332;2023-12-07T08:24:29;3.60;99.90
25582;DHT22;13462;50.764;4.332;2023-12-07T08:26:55;3.70;99.90
25582;DHT22;13462;50.764;4.332;2023-12-07T08:29:20;3.70;99.90
25582;DHT22;13462;50.764;4.332;2023-12-07T08:31:46;3.80;99.90
25582;DHT22;13462;50.764;4.332;2023-12-07T08:34:12;3.80;99.90
25582;DHT22;13462;50.764;4.332;2023-12-07T08:36:38;3.90;99.90
25582;DHT22;13462;50.764;4.332;2023-12-07T08:39:03;4.00;99.90
25582;DHT22;13462;50.764;4.332;2023-12-07T08:41:29;4.00;99.90
25582;DHT22;13462;50.764;4.332;2023-12-07T08:43:55;4.20;99.90
25582;DHT22;13462;50.764;4.332;2023-12-07T08:46:20;4.30;99.90
25582;DHT22;13462;50.764;4.332;2023-12-07T08:48:46;4.30;99.90
25582;DHT22;13462;50.764;4.332;2023-12-07T08:51:11;4.30;99.90
25582;DHT22;13462;50.764;4.332;2023-12-07T08:53:38;4.20;99.90
25582;DHT22;13462;50.764;4.332;2023-12-07T08:56:04;4.10;99.90
25582;DHT22;13462;50.764;4.332;2023-12-07T08:58:30;4.20;99.90
25582;DHT22;13462;50.764;4.332;2023-12-07T09:00:55;4.20;99.90
25582;DHT22;13462;50.764;4.332;2023-12-07T09:03:21;4.20;99.90
25582;DHT22;13462;50.764;4.332;2023-12-07T09:05:51;4.30;99.90
25582;DHT22;13462;50.764;4.332;2023-12-07T09:08:16;4.30;99.90
25582;DHT22;13462;50.764;4.332;2023-12-07T09:10:42;4.40;99.90
25582;DHT22;13462;50.764;4.332;2023-12-07T09:13:08;4.50;99.90
25582;DHT22;13462;50.764;4.332;2023-12-07T09:15:33;4.60;99.90
25582;DHT22;13462;50.764;4.332;2023-12-07T09:18:03;4.70;99.90
25582;DHT22;13462;50.764;4.332;2023-12-07T09:20:28;4.80;99.90
25582;DHT22;13462;50.764;4.332;2023-12-07T09:22:54;4.70;99.90
25582;DHT22;13462;50.764;4.332;2023-12-07T09:25:23;4.80;99.90
25582;DHT22;13462;50.764;4.332;2023-12-07T09:27:49;4.80;99.90
25582;DHT22;13462;50.764;4.332;2023-12-07T09:30:16;4.90;99.90
25582;DHT22;13462;50.764;4.332;2023-12-07T09:32:42;4.90;99.90
25582;DHT22;13462;50.764;4.332;2023-12-07T09:35:09;5.10;99.90
25582;DHT22;13462;50.764;4.332;2023-12-07T09:37:53;5.50;99.90
25582;DHT22;13462;50.764;4.332;2023-12-07T09:40:20;6.20;99.90
25582;DHT22;13462;50.764;4.332;2023-12-07T09:42:47;6.70;99.90
25582;DHT22;13462;50.764;4.332;2023-12-07T09:45:13;7.10;99.90
25582;DHT22;13462;50.764;4.332;2023-12-07T09:47:47;7.80;99.90
25582;DHT22;13462;50.764;4.332;2023-12-07T09:50:15;8.80;99.90
25582;DHT22;13462;50.764;4.332;2023-12-07T09:52:43;9.50;99.90
25582;DHT22;13462;50.764;4.332;2023-12-07T09:55:09;10.20;99.90
25582;DHT22;13462;50.764;4.332;2023-12-07T09:57:36;11.10;99.90
25582;DHT22;13462;50.764;4.332;2023-12-07T10:00:03;11.70;99.90
25582;DHT22;13462;50.764;4.332;2023-12-07T10:02:30;12.10;99.90
25582;DHT22;13462;50.764;4.332;2023-12-07T10:05:25;12.30;99.90
25582;DHT22;13462;50.764;4.332;2023-12-07T10:07:51;11.60;99.90
25582;DHT22;13462;50.764;4.332;2023-12-07T10:10:17;10.90;99.90
25582;DHT22;13462;50.764;4.332;2023-12-07T10:12:55;10.50;99.90
25582;DHT22;13462;50.764;4.332;2023-12-07T10:15:22;10.10;99.90
25582;DHT22;13462;50.764;4.332;2023-12-07T10:17:49;9.80;99.90
25582;DHT22;13462;50.764;4.332;2023-12-07T10:20:20;9.90;99.90
25582;DHT22;13462;50.764;4.332;2023-12-07T10:23:05;10.10;99.90
25582;DHT22;13462;50.764;4.332;2023-12-07T10:25:39;10.00;99.90
25582;DHT22;13462;50.764;4.332;2023-12-07T10:28:06;10.00;99.90
25582;DHT22;13462;50.764;4.332;2023-12-07T10:30:34;10.30;99.90
25582;DHT22;13462;50.764;4.332;2023-12-07T10:32:59;10.90;99.90
25582;DHT22;13462;50.764;4.332;2023-12-07T10:35:25;11.00;99.90
25582;DHT22;13462;50.764;4.332;2023-12-07T10:37:51;11.00;99.90
25582;DHT22;13462;50.764;4.332;2023-12-07T10:40:17;10.90;99.90
25582;DHT22;13462;50.764;4.332;2023-12-07T10:42:47;10.50;99.90
25582;DHT22;13462;50.764;4.332;2023-12-07T10:45:14;10.10;99.90
25582;DHT22;13462;50.764;4.332;2023-12-07T10:47:43;9.80;99.90
25582;DHT22;13462;50.764;4.332;2023-12-07T10:50:10;9.60;99.90
25582;DHT22;13462;50.764;4.332;2023-12-07T10:52:54;9.30;99.90
25582;DHT22;13462;50.764;4.332;2023-12-07T10:55:20;9.20;99.90
25582;DHT22;13462;50.764;4.332;2023-12-07T10:57:52;9.30;99.90
25582;DHT22;13462;50.764;4.332;2023-12-07T11:00:18;9.20;99.90
25582;DHT22;13462;50.764;4.332;2023-12-07T11:02:45;9.20;99.90
25582;DHT22;13462;50.764;4.332;2023-12-07T11:05:11;9.40;99.90
25582;DHT22;13462;50.764;4.332;2023-12-07T11:10:25;9.70;99.90
25582;DHT22;13462;50.764;4.332;2023-12-07T11:13:00;9.70;99.90
25582;DHT22;13462;50.764;4.332;2023-12-07T11:15:32;9.40;99.90
25582;DHT22;13462;50.764;4.332;2023-12-07T11:17:58;9.50;99.90
25582;DHT22;13462;50.764;4.332;2023-12-07T11:20:54;9.30;99.90
25582;DHT22;13462;50.764;4.332;2023-12-07T11:23:20;8.90;99.90
25582;DHT22;13462;50.764;4.332;2023-12-07T11:25:46;8.80;99.90
25582;DHT22;13462;50.764;4.332;2023-12-07T11:28:13;8.60;99.90
25582;DHT22;13462;50.764;4.332;2023-12-07T11:30:42;8.50;99.90
25582;DHT22;13462;50.764;4.332;2023-12-07T11:33:09;8.40;99.90
25582;DHT22;13462;50.764;4.332;2023-12-07T11:36:05;8.20;99.90
25582;DHT22;13462;50.764;4.332;2023-12-07T11:38:31;8.10;99.90
25582;DHT22;13462;50.764;4.332;2023-12-07T11:40:57;8.00;99.90
25582;DHT22;13462;50.764;4.332;2023-12-07T11:45:57;7.70;99.90
25582;DHT22;13462;50.764;4.332;2023-12-07T11:48:23;7.60;99.90
25582;DHT22;13462;50.764;4.332;2023-12-07T11:51:05;7.50;99.90
25582;DHT22;13462;50.764;4.332;2023-12-07T11:53:36;7.40;99.90
25582;DHT22;13462;50.764;4.332;2023-12-07T11:56:05;7.30;99.90
25582;DHT22;13462;50.764;4.332;2023-12-07T11:58:32;7.20;99.90
25582;DHT22;13462;50.764;4.332;2023-12-07T12:00:59;7.20;99.90
25582;DHT22;13462;50.764;4.332;2023-12-07T12:03:26;7.10;99.90
25582;DHT22;13462;50.764;4.332;2023-12-07T12:05:52;7.10;99.90
25582;DHT22;13462;50.764;4.332;2023-12-07T12:08:20;7.20;99.90
25582;DHT22;13462;50.764;4.332;2023-12-07T12:10:46;7.10;99.90
25582;DHT22;13462;50.764;4.332;2023-12-07T12:13:13;7.00;99.90
25582;DHT22;13462;50.764;4.332;2023-12-07T12:15:39;6.80;99.90
25582;DHT22;13462;50.764;4.332;2023-12-07T12:18:05;6.80;99.90
25582;DHT22;13462;50.764;4.332;2023-12-07T12:20:31;6.60;99.90
25582;DHT22;13462;50.764;4.332;2023-12-07T12:22:58;6.60;99.90
25582;DHT22;13462;50.764;4.332;2023-12-07T12:25:31;6.70;99.90
25582;DHT22;13462;50.764;4.332;2023-12-07T12:28:06;6.70;99.90
25582;DHT22;13462;50.764;4.332;2023-12-07T12:30:33;6.70;99.90
25582;DHT22;13462;50.764;4.332;2023-12-07T12:32:59;6.70;99.90
25582;DHT22;13462;50.764;4.332;2023-12-07T12:35:25;6.80;99.90
25582;DHT22;13462;50.764;4.332;2023-12-07T12:37:51;6.80;99.90
25582;DHT22;13462;50.764;4.332;2023-12-07T12:40:19;6.80;99.90
25582;DHT22;13462;50.764;4.332;2023-12-07T12:42:47;6.80;99.90
25582;DHT22;13462;50.764;4.332;2023-12-07T12:45:13;6.80;99.90
25582;DHT22;13462;50.764;4.332;2023-12-07T12:47:40;6.80;99.90
25582;DHT22;13462;50.764;4.332;2023-12-07T12:50:07;6.80;99.90
25582;DHT22;13462;50.764;4.332;2023-12-07T12:52:33;6.70;99.90
25582;DHT22;13462;50.764;4.332;2023-12-07T12:54:59;6.50;99.90
25582;DHT22;13462;50.764;4.332;2023-12-07T12:57:25;6.40;99.90
25582;DHT22;13462;50.764;4.332;2023-12-07T12:59:51;6.40;99.90
25582;DHT22;13462;50.764;4.332;2023-12-07T13:02:16;6.40;99.90
25582;DHT22;13462;50.764;4.332;2023-12-07T13:04:43;6.50;99.90
25582;DHT22;13462;50.764;4.332;2023-12-07T13:07:13;6.70;99.90
25582;DHT22;13462;50.764;4.332;2023-12-07T13:09:42;6.70;99.90
25582;DHT22;13462;50.764;4.332;2023-12-07T13:12:09;6.70;99.90
25582;DHT22;13462;50.764;4.332;2023-12-07T13:14:35;6.70;99.90
25582;DHT22;13462;50.764;4.332;2023-12-07T13:17:01;6.60;99.90
25582;DHT22;13462;50.764;4.332;2023-12-07T13:19:27;6.50;99.90
25582;DHT22;13462;50.764;4.332;2023-12-07T13:21:53;6.50;99.90
25582;DHT22;13462;50.764;4.332;2023-12-07T13:24:18;6.50;99.90
25582;DHT22;13462;50.764;4.332;2023-12-07T13:26:44;6.50;99.90
25582;DHT22;13462;50.764;4.332;2023-12-07T13:29:10;6.50;99.90
25582;DHT22;13462;50.764;4.332;2023-12-07T13:31:36;6.40;99.90
25582;DHT22;13462;50.764;4.332;2023-12-07T13:34:01;6.50;99.90
25582;DHT22;13462;50.764;4.332;2023-12-07T13:36:27;6.30;99.90
25582;DHT22;13462;50.764;4.332;2023-12-07T13:38:55;6.10;99.90
25582;DHT22;13462;50.764;4.332;2023-12-07T13:41:21;6.10;99.90
25582;DHT22;13462;50.764;4.332;2023-12-07T13:43:47;6.00;99.90
25582;DHT22;13462;50.764;4.332;2023-12-07T13:46:19;6.00;99.90
25582;DHT22;13462;50.764;4.332;2023-12-07T13:48:45;5.90;99.90
25582;DHT22;13462;50.764;4.332;2023-12-07T13:51:10;6.00;99.90
25582;DHT22;13462;50.764;4.332;2023-12-07T13:53:36;5.90;99.90
25582;DHT22;13462;50.764;4.332;2023-12-07T13:56:03;5.90;99.90
25582;DHT22;13462;50.764;4.332;2023-12-07T13:58:30;5.90;99.90
25582;DHT22;13462;50.764;4.332;2023-12-07T14:00:56;6.00;99.90
25582;DHT22;13462;50.764;4.332;2023-12-07T14:03:21;6.00;99.90
25582;DHT22;13462;50.764;4.332;2023-12-07T14:05:48;6.00;99.90
25582;DHT22;13462;50.764;4.332;2023-12-07T14:08:14;6.00;99.90
25582;DHT22;13462;50.764;4.332;2023-12-07T14:10:39;6.10;99.90
25582;DHT22;13462;50.764;4.332;2023-12-07T14:13:05;6.00;99.90
25582;DHT22;13462;50.764;4.332;2023-12-07T14:15:31;6.10;99.90
25582;DHT22;13462;50.764;4.332;2023-12-07T14:18:01;6.00;99.90
25582;DHT22;13462;50.764;4.332;2023-12-07T14:20:28;6.00;99.90
25582;DHT22;13462;50.764;4.332;2023-12-07T14:22:54;6.00;99.90
25582;DHT22;13462;50.764;4.332;2023-12-07T14:25:20;5.90;99.90
25582;DHT22;13462;50.764;4.332;2023-12-07T14:27:46;5.90;99.90
25582;DHT22;13462;50.764;4.332;2023-12-07T14:30:12;5.90;99.90
25582;DHT22;13462;50.764;4.332;2023-12-07T14:32:38;5.90;99.90
25582;DHT22;13462;50.764;4.332;2023-12-07T14:35:04;5.80;99.90
25582;DHT22;13462;50.764;4.332;2023-12-07T14:37:30;5.80;99.90
25582;DHT22;13462;50.764;4.332;2023-12-07T14:39:56;5.70;99.90
25582;DHT22;13462;50.764;4.332;2023-12-07T14:42:21;5.80;99.90
25582;DHT22;13462;50.764;4.332;2023-12-07T14:44:47;5.80;99.90
25582;DHT22;13462;50.764;4.332;2023-12-07T14:47:14;5.70;99.90
25582;DHT22;13462;50.764;4.332;2023-12-07T14:49:40;5.60;99.90
25582;DHT22;13462;50.764;4.332;2023-12-07T14:52:06;5.60;99.90
25582;DHT22;13462;50.764;4.332;2023-12-07T14:54:31;5.60;99.90
25582;DHT22;13462;50.764;4.332;2023-12-07T14:56:57;5.60;99.90
25582;DHT22;13462;50.764;4.332;2023-12-07T14:59:22;5.60;99.90
25582;DHT22;13462;50.764;4.332;2023-12-07T15:01:48;5.60;99.90
25582;DHT22;13462;50.764;4.332;2023-12-07T15:04:16;5.60;99.90
25582;DHT22;13462;50.764;4.332;2023-12-07T15:06:41;5.60;99.90
25582;DHT22;13462;50.764;4.332;2023-12-07T15:09:07;5.60;99.90
25582;DHT22;13462;50.764;4.332;2023-12-07T15:11:36;5.60;99.90
25582;DHT22;13462;50.764;4.332;2023-12-07T15:14:02;5.60;99.90
25582;DHT22;13462;50.764;4.332;2023-12-07T15:16:28;5.60;99.90
25582;DHT22;13462;50.764;4.332;2023-12-07T15:18:54;5.60;99.90
25582;DHT22;13462;50.764;4.332;2023-12-07T15:21:19;5.60;99.90
25582;DHT22;13462;50.764;4.332;2023-12-07T15:23:45;5.60;99.90
25582;DHT22;13462;50.764;4.332;2023-12-07T15:26:11;5.50;99.90
25582;DHT22;13462;50.764;4.332;2023-12-07T15:28:38;5.50;99.90
25582;DHT22;13462;50.764;4.332;2023-12-07T15:31:07;5.50;99.90
25582;DHT22;13462;50.764;4.332;2023-12-07T15:33:33;5.50;99.90
25582;DHT22;13462;50.764;4.332;2023-12-07T15:35:59;5.40;99.90
25582;DHT22;13462;50.764;4.332;2023-12-07T15:38:26;5.40;99.90
25582;DHT22;13462;50.764;4.332;2023-12-07T15:40:51;5.30;99.90
25582;DHT22;13462;50.764;4.332;2023-12-07T15:43:20;5.30;99.90
25582;DHT22;13462;50.764;4.332;2023-12-07T15:45:45;5.30;99.90
25582;DHT22;13462;50.764;4.332;2023-12-07T15:48:11;5.20;99.90
25582;DHT22;13462;50.764;4.332;2023-12-07T15:50:37;5.20;99.90